Time;durP1;ratioP1;P1;durP2;ratioP2;P2;SDS_P1;SDS_P2;PMS_P1;PMS_P2;Temp;Humidity;BMP_temperature;BMP_pressure;BME280_temperature;BME280_humidity;BME280_pressure;Samples;Min_cycle;Max_cycle;Signal;HPM_P1;HPM_P2
2022/07/31 00:00:21;;;;;;;10.68;8.32;;;17.60;99.90;;;;;;4781290;28;10000860;-73
2022/07/31 00:02:46;;;;;;;11.77;8.70;;;17.50;99.90;;;;;;4712681;28;9999890;-73
2022/07/31 00:05:13;;;;;;;10.50;8.48;;;17.50;99.90;;;;;;5055210;28;20033;-73
2022/07/31 00:07:38;;;;;;;9.70;8.80;;;17.50;99.90;;;;;;5050400;28;20843;-73
2022/07/31 00:10:05;;;;;;;9.55;8.57;;;17.60;99.90;;;;;;5059700;28;20055;-73
2022/07/31 00:12:31;;;;;;;9.35;7.72;;;17.60;99.90;;;;;;5065075;28;20391;-73
2022/07/31 00:14:56;;;;;;;8.90;8.13;;;17.60;99.90;;;;;;5058103;28;20549;-73
2022/07/31 00:17:22;;;;;;;12.07;9.70;;;17.60;99.90;;;;;;5063725;28;20028;-73
2022/07/31 00:19:48;;;;;;;10.95;9.20;;;17.50;99.90;;;;;;5061666;28;20119;-73
2022/07/31 00:22:14;;;;;;;9.52;8.43;;;17.50;99.90;;;;;;5074996;28;20475;-73
2022/07/31 00:24:39;;;;;;;9.05;8.15;;;17.50;99.90;;;;;;5067892;28;20029;-73
2022/07/31 00:27:05;;;;;;;10.07;8.30;;;17.50;99.90;;;;;;5063892;28;20024;-73
2022/07/31 00:29:31;;;;;;;9.50;8.48;;;17.50;99.90;;;;;;5069805;28;20033;-74
2022/07/31 00:31:56;;;;;;;10.73;9.63;;;17.50;99.90;;;;;;5066639;28;20027;-73
2022/07/31 00:34:22;;;;;;;10.52;8.48;;;17.50;99.90;;;;;;5061953;28;20039;-73
2022/07/31 00:36:48;;;;;;;9.23;8.10;;;17.50;99.90;;;;;;5067149;28;20069;-73
2022/07/31 00:39:14;;;;;;;8.90;7.63;;;17.50;99.90;;;;;;5051984;28;20032;-73
2022/07/31 00:41:42;;;;;;;8.63;7.72;;;17.50;99.90;;;;;;5063601;28;20221;-73
2022/07/31 00:44:08;;;;;;;8.90;8.00;;;17.50;99.90;;;;;;5057215;28;20028;-73
2022/07/31 00:46:33;;;;;;;9.32;8.18;;;17.50;99.90;;;;;;5070849;28;20249;-73
2022/07/31 00:49:00;;;;;;;9.38;7.65;;;17.50;99.90;;;;;;5060024;28;20127;-73
2022/07/31 00:51:26;;;;;;;12.02;8.48;;;17.50;99.90;;;;;;5062550;28;20108;-74
2022/07/31 00:53:51;;;;;;;9.93;8.52;;;17.50;99.90;;;;;;5078543;28;20021;-73
2022/07/31 00:56:17;;;;;;;9.77;8.07;;;17.50;99.90;;;;;;5056996;28;20028;-72
2022/07/31 00:58:42;;;;;;;8.70;7.82;;;17.50;99.90;;;;;;5069607;28;20024;-72
2022/07/31 01:01:08;;;;;;;8.50;7.72;;;17.50;99.90;;;;;;5070145;28;20027;-73
2022/07/31 01:03:33;;;;;;;8.63;7.50;;;17.50;99.90;;;;;;5070786;28;20024;-72
2022/07/31 01:05:59;;;;;;;8.52;7.70;;;17.50;99.90;;;;;;5070539;28;20020;-73
2022/07/31 01:08:24;;;;;;;11.00;7.72;;;17.50;99.90;;;;;;5063855;28;20037;-72
2022/07/31 01:11:00;;;;;;;8.88;8.00;;;17.50;99.90;;;;;;5059686;28;20413;-72
2022/07/31 01:13:34;;;;;;;9.45;7.80;;;17.50;99.90;;;;;;5067860;28;20485;-73
2022/07/31 01:16:02;;;;;;;9.57;8.38;;;17.50;99.90;;;;;;5059396;28;20047;-73
2022/07/31 01:18:31;;;;;;;10.20;8.40;;;17.50;99.90;;;;;;5062282;28;20024;-73
2022/07/31 01:21:02;;;;;;;9.30;8.35;;;17.50;99.90;;;;;;5061635;28;20036;-73
2022/07/31 01:23:43;;;;;;;8.32;7.50;;;17.50;99.90;;;;;;5052373;28;20067;-73
2022/07/31 01:26:23;;;;;;;9.02;8.13;;;17.50;99.90;;;;;;5059424;28;20455;-73
2022/07/31 01:29:10;;;;;;;9.70;8.10;;;17.40;99.90;;;;;;5056140;28;20024;-73
2022/07/31 01:31:48;;;;;;;8.65;7.85;;;17.40;99.90;;;;;;5058192;28;20032;-73
2022/07/31 01:34:24;;;;;;;9.25;8.27;;;17.40;99.90;;;;;;5056932;28;20046;-73
2022/07/31 01:36:59;;;;;;;8.95;8.07;;;17.30;99.90;;;;;;5058717;28;20025;-73
2022/07/31 01:39:27;;;;;;;9.10;8.20;;;17.30;99.90;;;;;;5056994;28;20037;-73
2022/07/31 01:41:55;;;;;;;8.80;8.00;;;17.30;99.90;;;;;;5061983;28;20165;-73
2022/07/31 01:44:25;;;;;;;8.57;7.72;;;17.20;99.90;;;;;;5061497;28;20029;-73
2022/07/31 01:46:52;;;;;;;8.48;7.68;;;17.20;99.90;;;;;;5064098;28;20512;-73
2022/07/31 01:49:20;;;;;;;8.05;7.25;;;17.20;99.90;;;;;;5045496;28;20029;-73
2022/07/31 01:51:48;;;;;;;8.18;7.45;;;17.20;99.90;;;;;;5060972;28;20028;-73
2022/07/31 01:54:17;;;;;;;8.70;6.93;;;17.10;99.90;;;;;;5060068;28;20035;-73
2022/07/31 01:56:45;;;;;;;7.68;6.97;;;17.10;99.90;;;;;;5064098;28;20446;-73
2022/07/31 01:59:11;;;;;;;7.90;7.10;;;17.10;99.90;;;;;;5060175;28;20702;-73
2022/07/31 02:01:38;;;;;;;8.02;7.05;;;17.00;99.90;;;;;;5074394;28;20034;-73
2022/07/31 02:04:04;;;;;;;8.15;6.85;;;17.00;99.90;;;;;;5058788;28;20028;-73
2022/07/31 02:06:30;;;;;;;7.68;6.97;;;17.00;99.90;;;;;;5062837;28;20028;-73
2022/07/31 02:08:58;;;;;;;8.02;7.22;;;17.00;99.90;;;;;;5055257;28;20032;-73
2022/07/31 02:11:24;;;;;;;7.65;6.95;;;17.00;99.90;;;;;;5070687;28;20028;-72
2022/07/31 02:13:51;;;;;;;7.10;6.40;;;17.00;99.90;;;;;;5070691;28;20299;-73
2022/07/31 02:16:18;;;;;;;8.35;6.90;;;17.00;99.90;;;;;;5046833;28;20025;-72
2022/07/31 02:18:47;;;;;;;8.35;6.93;;;17.00;99.90;;;;;;5067529;28;20473;-72
2022/07/31 02:21:13;;;;;;;7.60;6.80;;;17.00;99.90;;;;;;5054854;28;20163;-73
2022/07/31 02:23:39;;;;;;;7.82;7.03;;;16.90;99.90;;;;;;5076062;28;20032;-73
2022/07/31 02:26:06;;;;;;;7.78;6.85;;;16.90;99.90;;;;;;5057299;28;20017;-72
2022/07/31 02:28:34;;;;;;;7.72;6.95;;;16.80;99.90;;;;;;5065051;28;20241;-72
2022/07/31 02:31:01;;;;;;;7.63;6.90;;;16.80;99.90;;;;;;5052572;28;20043;-73
2022/07/31 02:33:28;;;;;;;8.38;6.63;;;16.70;99.90;;;;;;5062424;28;20064;-73
2022/07/31 02:35:55;;;;;;;8.23;7.15;;;16.80;99.90;;;;;;5067286;28;20028;-72
2022/07/31 02:38:24;;;;;;;9.32;7.55;;;16.70;99.90;;;;;;5062899;28;20102;-73
2022/07/31 02:40:54;;;;;;;9.00;8.10;;;16.70;99.90;;;;;;5074653;28;20052;-72
2022/07/31 02:43:20;;;;;;;7.90;7.20;;;16.60;99.90;;;;;;5057609;28;20024;-72
2022/07/31 02:45:46;;;;;;;8.10;7.30;;;16.60;99.90;;;;;;5056681;28;20396;-73
2022/07/31 02:48:12;;;;;;;7.95;7.15;;;16.60;99.90;;;;;;5064004;28;20036;-72
2022/07/31 02:50:38;;;;;;;7.90;7.20;;;16.50;99.90;;;;;;5062422;28;20032;-73
2022/07/31 02:53:04;;;;;;;8.50;7.70;;;16.50;99.90;;;;;;5061962;28;20675;-72
2022/07/31 02:55:31;;;;;;;8.82;7.90;;;16.50;99.90;;;;;;5058415;28;20115;-73
2022/07/31 02:57:57;;;;;;;9.27;7.60;;;16.50;99.90;;;;;;5066942;28;20237;-73
2022/07/31 03:00:25;;;;;;;9.20;8.40;;;16.50;99.90;;;;;;5056298;28;20035;-73
2022/07/31 03:02:52;;;;;;;9.23;8.32;;;16.50;99.90;;;;;;5061973;28;20460;-73
2022/07/31 03:05:18;;;;;;;10.30;9.30;;;16.50;99.90;;;;;;5057379;28;20043;-73
2022/07/31 03:07:44;;;;;;;9.57;8.68;;;16.50;99.90;;;;;;5069718;28;20123;-73
2022/07/31 03:10:10;;;;;;;9.95;8.95;;;16.50;99.90;;;;;;5062805;28;20456;-73
2022/07/31 03:12:39;;;;;;;11.00;8.68;;;16.50;99.90;;;;;;5058695;28;20021;-73
2022/07/31 03:15:12;;;;;;;10.07;9.15;;;16.50;99.90;;;;;;5061463;28;20037;-73
2022/07/31 03:17:39;;;;;;;10.73;9.32;;;16.50;99.90;;;;;;5071099;28;20099;-73
2022/07/31 03:20:06;;;;;;;9.68;8.77;;;16.50;99.90;;;;;;5068090;28;20539;-72
2022/07/31 03:22:32;;;;;;;10.13;9.15;;;16.50;99.90;;;;;;5054290;28;20115;-73
2022/07/31 03:24:59;;;;;;;9.15;8.32;;;16.40;99.90;;;;;;5051429;28;20163;-72
2022/07/31 03:27:25;;;;;;;9.15;8.25;;;16.40;99.90;;;;;;5079500;28;20031;-72
2022/07/31 03:29:50;;;;;;;9.10;8.20;;;16.40;99.90;;;;;;5052990;28;20299;-72
2022/07/31 03:32:16;;;;;;;9.30;8.32;;;16.30;99.90;;;;;;5064002;28;20025;-72
2022/07/31 03:34:41;;;;;;;8.60;7.80;;;16.30;99.90;;;;;;5065359;28;20388;-72
2022/07/31 03:37:09;;;;;;;7.40;6.75;;;16.20;99.90;;;;;;5070182;28;20056;-73
2022/07/31 03:39:34;;;;;;;8.00;7.20;;;16.10;99.90;;;;;;5058765;28;20031;-72
2022/07/31 03:42:01;;;;;;;8.32;7.53;;;16.10;99.90;;;;;;5073482;28;20028;-73
2022/07/31 03:44:28;;;;;;;7.70;7.00;;;16.10;99.90;;;;;;5060993;28;20032;-72
2022/07/31 03:46:53;;;;;;;7.70;6.95;;;16.00;99.90;;;;;;5045109;28;20397;-73
2022/07/31 03:49:20;;;;;;;8.15;7.28;;;16.00;99.90;;;;;;5051799;28;20598;-73
2022/07/31 03:51:46;;;;;;;8.27;7.10;;;16.00;99.90;;;;;;5057889;28;20476;-73
2022/07/31 03:54:11;;;;;;;7.90;7.10;;;16.00;99.90;;;;;;5076979;28;20031;-73
2022/07/31 03:56:38;;;;;;;9.30;6.78;;;16.00;99.90;;;;;;5056925;28;20021;-73
2022/07/31 03:59:04;;;;;;;7.30;6.60;;;16.00;99.90;;;;;;5050587;28;20037;-73
2022/07/31 04:01:30;;;;;;;7.50;6.75;;;16.10;99.90;;;;;;5061348;28;20037;-72
2022/07/31 04:03:59;;;;;;;7.95;7.15;;;16.00;99.90;;;;;;5057759;28;20120;-73
2022/07/31 04:06:24;;;;;;;7.25;6.57;;;16.00;99.90;;;;;;5082542;28;20032;-73
2022/07/31 04:08:50;;;;;;;7.68;6.97;;;15.90;99.90;;;;;;5051864;28;20114;-73
2022/07/31 04:11:15;;;;;;;8.13;7.40;;;15.90;99.90;;;;;;5057003;28;20120;-73
2022/07/31 04:13:41;;;;;;;7.90;7.20;;;15.90;99.90;;;;;;5059359;28;20472;-73
2022/07/31 04:16:07;;;;;;;9.98;7.68;;;15.90;99.90;;;;;;5063908;28;20025;-73
2022/07/31 04:18:33;;;;;;;10.35;7.38;;;15.90;99.90;;;;;;5062307;28;20103;-73
2022/07/31 04:20:59;;;;;;;9.02;8.18;;;15.90;99.90;;;;;;5062703;28;20024;-72
2022/07/31 04:23:24;;;;;;;9.63;7.55;;;15.90;99.90;;;;;;5047973;28;20079;-73
2022/07/31 04:25:50;;;;;;;7.90;7.10;;;15.90;99.90;;;;;;5058111;28;20037;-73
2022/07/31 04:28:16;;;;;;;7.68;6.88;;;15.90;99.90;;;;;;5059122;28;20100;-73
2022/07/31 04:30:41;;;;;;;6.78;6.18;;;16.00;99.90;;;;;;5055159;28;20063;-73
2022/07/31 04:33:07;;;;;;;8.68;6.03;;;16.00;99.90;;;;;;5052809;28;20054;-73
2022/07/31 04:35:32;;;;;;;6.88;6.18;;;16.10;99.90;;;;;;5060579;28;20033;-73
2022/07/31 04:37:58;;;;;;;8.20;6.63;;;16.10;99.90;;;;;;5063907;28;20411;-72
2022/07/31 04:40:26;;;;;;;7.85;6.30;;;16.20;99.90;;;;;;5048198;28;20074;-72
2022/07/31 04:42:52;;;;;;;8.07;6.75;;;16.30;99.90;;;;;;5073087;28;20029;-72
2022/07/31 04:45:18;;;;;;;8.85;7.95;;;16.90;99.90;;;;;;5050877;28;20041;-72
2022/07/31 04:47:43;;;;;;;15.00;8.85;;;17.40;99.90;;;;;;5051550;28;20083;-72
2022/07/31 04:50:09;;;;;;;11.65;9.70;;;17.40;99.90;;;;;;5047022;28;20086;-72
2022/07/31 04:52:34;;;;;;;10.60;9.50;;;17.30;99.90;;;;;;5056471;28;20063;-73
2022/07/31 04:55:00;;;;;;;13.60;10.23;;;17.10;99.90;;;;;;5065488;28;20036;-72
2022/07/31 04:57:26;;;;;;;11.07;9.98;;;17.00;99.90;;;;;;5086823;28;20028;-72
2022/07/31 04:59:51;;;;;;;13.00;10.65;;;16.90;99.90;;;;;;5066494;28;20337;-73
2022/07/31 05:02:17;;;;;;;11.52;10.40;;;17.00;99.90;;;;;;5062501;28;20081;-73
2022/07/31 05:04:42;;;;;;;15.02;11.25;;;16.90;99.90;;;;;;5051370;28;20373;-73
2022/07/31 05:07:08;;;;;;;12.73;11.43;;;17.00;99.90;;;;;;5075486;28;20078;-73
2022/07/31 05:09:34;;;;;;;12.40;10.40;;;17.10;99.90;;;;;;5065894;28;20036;-73
2022/07/31 05:12:00;;;;;;;14.20;10.27;;;17.10;99.90;;;;;;5066095;28;20121;-73
2022/07/31 05:14:27;;;;;;;10.82;9.60;;;17.20;99.90;;;;;;5046684;28;20386;-73
2022/07/31 05:16:53;;;;;;;10.18;9.20;;;17.20;99.90;;;;;;5069826;28;20058;-72
2022/07/31 05:19:18;;;;;;;12.15;9.82;;;17.20;99.90;;;;;;5047576;28;20389;-73
2022/07/31 05:21:45;;;;;;;9.68;8.75;;;17.30;99.90;;;;;;5056200;28;20032;-73
2022/07/31 05:24:11;;;;;;;11.65;9.88;;;17.30;99.90;;;;;;5057547;28;20030;-73
2022/07/31 05:26:37;;;;;;;9.63;8.63;;;17.40;99.90;;;;;;5058400;28;20036;-73
2022/07/31 05:29:04;;;;;;;10.65;9.52;;;17.60;99.90;;;;;;5064234;28;20637;-73
2022/07/31 05:31:29;;;;;;;10.93;9.80;;;17.70;99.90;;;;;;5057629;28;20055;-72
2022/07/31 05:33:57;;;;;;;13.25;9.55;;;17.90;99.90;;;;;;5063669;28;20029;-73
2022/07/31 05:36:25;;;;;;;11.27;9.30;;;18.00;99.90;;;;;;5058829;28;20029;-73
2022/07/31 05:38:51;;;;;;;12.13;9.20;;;18.10;99.90;;;;;;5047888;28;20353;-73
2022/07/31 05:41:16;;;;;;;16.17;9.93;;;18.20;99.90;;;;;;5051878;28;20107;-73
2022/07/31 05:43:42;;;;;;;14.00;9.75;;;18.40;99.90;;;;;;5080848;28;20036;-73
2022/07/31 05:46:08;;;;;;;12.40;8.10;;;18.40;99.90;;;;;;5071732;28;20016;-73
2022/07/31 05:48:33;;;;;;;11.68;8.38;;;18.50;99.90;;;;;;5056493;28;20287;-73
2022/07/31 05:50:59;;;;;;;9.98;8.07;;;18.70;99.90;;;;;;5062590;28;20033;-73
2022/07/31 05:53:25;;;;;;;9.25;7.68;;;18.90;99.90;;;;;;5059704;28;20054;-72
2022/07/31 05:55:51;;;;;;;8.43;7.53;;;19.00;99.90;;;;;;5058183;28;20108;-72
2022/07/31 05:58:18;;;;;;;10.27;7.43;;;19.00;99.90;;;;;;5055475;28;20105;-72
2022/07/31 06:00:46;;;;;;;8.25;7.15;;;19.00;99.90;;;;;;5053636;28;20033;-73
2022/07/31 06:03:12;;;;;;;11.02;7.10;;;19.00;99.90;;;;;;5049313;28;20032;-73
2022/07/31 06:05:39;;;;;;;11.40;7.88;;;19.10;99.90;;;;;;5054385;28;20028;-71
2022/07/31 06:08:05;;;;;;;9.23;7.32;;;19.10;99.90;;;;;;5053558;28;20105;-73
2022/07/31 06:10:31;;;;;;;9.15;7.60;;;19.10;99.90;;;;;;5048026;28;20481;-73
2022/07/31 06:12:56;;;;;;;9.57;6.97;;;19.10;99.90;;;;;;5047469;28;20055;-73
2022/07/31 06:15:22;;;;;;;13.18;8.00;;;19.10;99.90;;;;;;5068208;28;20037;-74
2022/07/31 06:17:48;;;;;;;8.05;7.00;;;19.20;99.90;;;;;;5043603;28;20024;-75
2022/07/31 06:20:13;;;;;;;8.15;6.60;;;19.10;99.90;;;;;;5043579;28;20384;-74
2022/07/31 06:22:42;;;;;;;9.75;7.00;;;19.10;99.90;;;;;;5049265;28;21342;-74
2022/07/31 06:25:08;;;;;;;10.93;7.03;;;19.10;99.90;;;;;;5051925;28;20511;-73
2022/07/31 06:27:35;;;;;;;8.00;7.10;;;19.10;99.90;;;;;;5048169;28;20147;-75
2022/07/31 06:30:02;;;;;;;8.15;7.00;;;19.10;99.90;;;;;;5044417;28;20033;-73
2022/07/31 06:32:28;;;;;;;8.15;6.95;;;19.10;99.90;;;;;;5047918;28;20062;-75
2022/07/31 06:34:53;;;;;;;7.25;6.55;;;19.10;99.90;;;;;;5056890;28;20037;-74
2022/07/31 06:37:19;;;;;;;7.65;6.75;;;19.20;99.90;;;;;;5052351;28;20167;-74
2022/07/31 06:39:44;;;;;;;11.07;7.43;;;19.30;99.90;;;;;;5063759;28;20020;-74
2022/07/31 06:42:10;;;;;;;8.02;7.22;;;19.40;99.90;;;;;;5046154;28;20108;-73
2022/07/31 06:44:36;;;;;;;8.88;6.65;;;19.40;99.90;;;;;;5045575;28;20127;-73
2022/07/31 06:47:01;;;;;;;7.70;6.90;;;19.50;99.90;;;;;;5047515;28;20048;-73
2022/07/31 06:49:27;;;;;;;7.75;6.90;;;19.60;99.90;;;;;;5046853;28;20528;-73
2022/07/31 06:51:52;;;;;;;9.20;7.55;;;19.70;99.90;;;;;;5045839;28;20154;-73
2022/07/31 06:54:18;;;;;;;9.30;6.55;;;19.80;99.90;;;;;;5060984;28;20495;-74
2022/07/31 06:56:44;;;;;;;7.78;6.80;;;19.90;99.90;;;;;;5066627;28;20017;-74
2022/07/31 06:59:10;;;;;;;7.75;6.50;;;20.10;99.90;;;;;;5055809;28;20086;-74
2022/07/31 07:01:35;;;;;;;7.57;6.22;;;20.30;99.90;;;;;;5046577;28;20032;-74
2022/07/31 07:04:02;;;;;;;8.35;7.03;;;20.50;99.90;;;;;;5049615;28;20059;-74
2022/07/31 07:06:27;;;;;;;14.90;7.57;;;20.70;99.90;;;;;;5044696;28;20468;-74
2022/07/31 07:08:53;;;;;;;7.28;6.53;;;20.80;99.90;;;;;;5047197;28;20116;-73
2022/07/31 07:11:19;;;;;;;7.07;6.28;;;20.90;99.90;;;;;;5056397;28;20036;-73
2022/07/31 07:13:46;;;;;;;9.93;6.20;;;21.00;99.90;;;;;;5065504;28;20031;-74
2022/07/31 07:16:12;;;;;;;10.80;6.38;;;21.10;99.90;;;;;;5065885;28;20025;-73
2022/07/31 07:18:37;;;;;;;8.98;6.20;;;21.20;99.90;;;;;;5051516;28;20047;-73
2022/07/31 07:21:03;;;;;;;11.55;6.32;;;21.40;99.90;;;;;;5058634;28;20400;-73
2022/07/31 07:23:29;;;;;;;9.00;6.10;;;21.50;99.90;;;;;;5065140;28;20511;-73
2022/07/31 07:25:55;;;;;;;10.40;6.43;;;21.70;99.90;;;;;;5046222;28;20036;-73
2022/07/31 07:28:21;;;;;;;8.75;6.10;;;21.70;99.90;;;;;;5054613;28;20076;-73
2022/07/31 07:30:47;;;;;;;7.50;5.70;;;21.70;99.90;;;;;;5046283;28;20033;-73
2022/07/31 07:33:13;;;;;;;6.75;5.28;;;21.80;99.90;;;;;;5047462;28;20053;-73
2022/07/31 07:35:39;;;;;;;8.00;5.60;;;21.80;99.90;;;;;;5045646;28;20056;-73
2022/07/31 07:38:04;;;;;;;6.70;5.35;;;21.90;99.90;;;;;;5055588;28;20382;-74
2022/07/31 07:40:30;;;;;;;6.18;5.05;;;22.00;99.90;;;;;;5045739;28;20039;-74
2022/07/31 07:42:56;;;;;;;6.18;5.40;;;22.20;99.90;;;;;;5056212;28;20075;-74
2022/07/31 07:45:23;;;;;;;7.32;5.35;;;22.40;99.90;;;;;;5048228;28;20116;-74
2022/07/31 07:47:49;;;;;;;5.93;5.15;;;22.40;99.90;;;;;;5053228;28;20036;-74
2022/07/31 07:50:14;;;;;;;5.53;4.65;;;22.50;99.90;;;;;;5049883;28;20097;-74
2022/07/31 07:52:40;;;;;;;5.72;5.20;;;22.50;99.90;;;;;;5048314;28;20296;-74
2022/07/31 07:55:07;;;;;;;6.07;4.80;;;22.50;99.90;;;;;;5051125;28;20083;-74
2022/07/31 07:57:33;;;;;;;8.82;5.30;;;22.40;99.90;;;;;;5059240;28;20392;-74
2022/07/31 07:59:59;;;;;;;7.65;5.30;;;22.40;99.90;;;;;;5063761;28;20025;-74
2022/07/31 08:02:25;;;;;;;10.63;5.78;;;22.40;99.90;;;;;;5050185;28;20013;-74
2022/07/31 08:04:50;;;;;;;5.10;4.35;;;22.40;99.90;;;;;;5053890;28;20093;-74
2022/07/31 08:07:25;;;;;;;8.80;4.22;;;22.30;99.90;;;;;;5065248;28;20308;-74
2022/07/31 08:09:50;;;;;;;8.30;3.83;;;22.40;99.90;;;;;;5064239;28;20035;-74
2022/07/31 08:12:16;;;;;;;4.68;3.85;;;22.40;99.90;;;;;;5047547;28;20392;-73
2022/07/31 08:14:42;;;;;;;4.68;3.85;;;22.60;99.90;;;;;;5048070;28;20185;-74
2022/07/31 08:17:11;;;;;;;6.15;3.90;;;22.70;99.90;;;;;;5065508;28;20032;-74
2022/07/31 08:19:36;;;;;;;7.05;3.70;;;22.80;99.90;;;;;;5057756;28;20108;-74
2022/07/31 08:22:02;;;;;;;4.53;3.70;;;22.90;99.90;;;;;;5065796;28;20103;-73
2022/07/31 08:24:27;;;;;;;3.55;3.17;;;23.10;99.90;;;;;;5065619;28;20032;-73
2022/07/31 08:29:37;;;;;;;5.68;3.10;;;23.40;99.90;;;;;;5047186;28;20063;-73
2022/07/31 08:32:03;;;;;;;3.30;3.00;;;23.50;99.90;;;;;;5053598;28;20056;-74
2022/07/31 08:34:29;;;;;;;4.25;2.83;;;23.60;99.90;;;;;;5068310;28;20123;-74
2022/07/31 08:36:54;;;;;;;3.65;3.20;;;23.70;99.90;;;;;;5072417;28;21488;-73
2022/07/31 08:39:20;;;;;;;4.95;2.97;;;23.70;99.90;;;;;;5067025;28;20024;-74
2022/07/31 08:41:45;;;;;;;6.18;3.78;;;23.70;99.90;;;;;;5059862;28;20029;-74
2022/07/31 08:44:11;;;;;;;5.00;3.13;;;23.60;99.90;;;;;;5049129;28;20028;-74
2022/07/31 08:46:38;;;;;;;7.20;3.17;;;23.60;99.90;;;;;;5051333;28;20082;-74
2022/07/31 08:49:06;;;;;;;4.32;2.90;;;23.60;99.90;;;;;;5048466;28;20075;-75
2022/07/31 08:51:37;;;;;;;6.95;3.72;;;23.60;99.90;;;;;;5048642;28;20104;-74
2022/07/31 08:54:09;;;;;;;7.90;3.38;;;23.70;99.90;;;;;;5052054;28;20055;-74
2022/07/31 08:56:36;;;;;;;4.63;3.28;;;23.80;99.90;;;;;;5048363;28;20064;-74
2022/07/31 08:59:03;;;;;;;6.38;3.63;;;23.80;99.90;;;;;;5053143;28;20381;-74
2022/07/31 09:01:29;;;;;;;6.40;3.50;;;23.90;99.90;;;;;;5049214;28;20087;-74
2022/07/31 09:03:55;;;;;;;6.97;3.50;;;;;;;;;;5049701;28;20036;-74
2022/07/31 09:06:21;;;;;;;7.95;3.70;;;24.00;99.90;;;;;;5052118;28;20431;-74
2022/07/31 09:08:46;;;;;;;7.43;3.33;;;24.00;99.90;;;;;;5056441;28;20037;-74
2022/07/31 09:11:13;;;;;;;4.95;3.63;;;23.90;99.90;;;;;;5066333;28;20027;-74
2022/07/31 09:13:39;;;;;;;3.72;3.25;;;24.00;99.90;;;;;;5060387;28;20037;-74
2022/07/31 09:16:05;;;;;;;10.20;3.50;;;24.00;99.90;;;;;;5076185;28;20028;-74
2022/07/31 09:18:32;;;;;;;5.82;3.20;;;24.10;99.90;;;;;;5050823;28;20082;-74
2022/07/31 09:21:03;;;;;;;7.93;3.33;;;24.10;99.90;;;;;;5045768;28;20044;-74
2022/07/31 09:23:30;;;;;;;5.32;2.92;;;24.20;99.90;;;;;;5056109;28;20063;-74
2022/07/31 09:25:58;;;;;;;3.78;3.10;;;24.30;99.90;;;;;;5050707;28;20033;-74
2022/07/31 09:28:51;;;;;;;6.55;3.17;;;24.40;99.90;;;;;;5060192;28;20284;-74
2022/07/31 09:31:16;;;;;;;5.85;2.85;;;24.60;99.90;;;;;;5049809;28;20436;-75
2022/07/31 09:33:43;;;;;;;6.20;2.92;;;24.80;99.90;;;;;;5050385;28;20025;-75
2022/07/31 09:36:09;;;;;;;5.82;3.05;;;25.00;99.90;;;;;;5055192;28;20017;-75
2022/07/31 09:38:41;;;;;;;2.75;2.40;;;25.40;99.90;;;;;;5062555;28;20048;-75
2022/07/31 09:41:14;;;;;;;7.43;3.10;;;25.60;99.30;;;;;;5046765;28;20641;-75
2022/07/31 09:43:40;;;;;;;;;;;25.70;98.20;;;;;;5048742;28;20425;-75
2022/07/31 09:46:07;;;;;;;5.53;2.70;;;25.60;98.00;;;;;;5054569;28;20019;-75
2022/07/31 09:48:33;;;;;;;6.65;2.60;;;25.50;98.10;;;;;;5053360;28;20039;-75
2022/07/31 09:51:02;;;;;;;3.92;2.60;;;25.50;97.20;;;;;;5049625;28;20029;-74
2022/07/31 09:53:44;;;;;;;5.72;2.25;;;25.60;97.10;;;;;;5052523;28;20434;-74
2022/07/31 09:56:11;;;;;;;2.83;2.50;;;25.60;96.90;;;;;;5053926;28;20077;-73
2022/07/31 09:58:38;;;;;;;4.32;2.50;;;25.80;96.40;;;;;;5050187;28;20535;-74
2022/07/31 10:01:06;;;;;;;4.55;2.20;;;26.00;96.00;;;;;;5055361;28;20074;-74
2022/07/31 10:03:32;;;;;;;6.00;2.35;;;26.10;96.30;;;;;;5049970;28;20157;-74
2022/07/31 10:05:58;;;;;;;4.53;2.38;;;26.30;95.80;;;;;;5056982;28;20075;-74
2022/07/31 10:08:25;;;;;;;7.65;2.38;;;26.50;94.90;;;;;;5055016;28;20028;-74
2022/07/31 10:10:51;;;;;;;6.00;2.13;;;26.60;93.40;;;;;;5063235;28;20036;-74
2022/07/31 10:13:19;;;;;;;7.32;2.40;;;26.50;92.60;;;;;;5055948;28;20035;-74
2022/07/31 10:15:47;;;;;;;5.43;2.38;;;26.60;92.10;;;;;;5063312;28;20023;-74
2022/07/31 10:18:16;;;;;;;7.00;2.55;;;26.60;92.70;;;;;;5062983;28;20069;-74
2022/07/31 10:20:48;;;;;;;4.93;2.30;;;26.60;92.10;;;;;;5047808;28;20063;-74
2022/07/31 10:23:16;;;;;;;5.47;2.43;;;26.50;91.70;;;;;;5056218;28;20071;-74
2022/07/31 10:25:50;;;;;;;3.80;2.17;;;26.60;91.10;;;;;;5052637;28;20315;-74
2022/07/31 10:28:16;;;;;;;5.15;2.20;;;26.60;91.00;;;;;;5052251;28;20127;-74
2022/07/31 10:30:45;;;;;;;2.25;1.83;;;26.60;90.40;;;;;;5057446;28;20077;-74
2022/07/31 10:33:11;;;;;;;5.75;2.30;;;26.60;89.90;;;;;;5060634;28;20380;-74
2022/07/31 10:36:01;;;;;;;3.53;2.20;;;26.60;89.80;;;;;;5055439;28;20033;-74
2022/07/31 10:38:34;;;;;;;6.38;2.10;;;26.60;88.30;;;;;;5045389;28;20570;-74
2022/07/31 10:41:24;;;;;;;6.45;2.47;;;26.50;90.30;;;;;;5063405;28;20535;-74
2022/07/31 10:44:02;;;;;;;5.70;2.33;;;26.60;90.70;;;;;;5056259;28;20036;-74
2022/07/31 10:46:27;;;;;;;4.07;2.33;;;26.80;90.30;;;;;;5056299;28;20111;-74
2022/07/31 10:48:53;;;;;;;3.13;2.38;;;27.10;87.90;;;;;;5052759;28;20032;-74
2022/07/31 10:51:21;;;;;;;2.92;2.10;;;27.20;86.50;;;;;;5063454;28;20032;-74
2022/07/31 10:54:01;;;;;;;2.67;1.95;;;27.20;84.00;;;;;;5062309;28;20032;-74
2022/07/31 10:56:38;;;;;;;4.30;2.00;;;27.10;84.80;;;;;;5063793;28;20027;-74
2022/07/31 10:59:04;;;;;;;6.13;2.08;;;27.00;83.30;;;;;;5043760;28;20036;-74
2022/07/31 11:01:30;;;;;;;3.80;2.20;;;27.00;85.40;;;;;;5049246;28;20017;-74
2022/07/31 11:04:02;;;;;;;3.85;2.10;;;26.90;82.70;;;;;;5052979;28;20385;-74
2022/07/31 11:06:41;;;;;;;5.25;2.05;;;27.10;84.50;;;;;;5068167;28;20087;-74
2022/07/31 11:09:07;;;;;;;3.08;1.90;;;27.30;82.20;;;;;;5048857;28;20070;-74
2022/07/31 11:11:35;;;;;;;4.95;2.05;;;27.50;82.50;;;;;;5061320;28;20028;-74
2022/07/31 11:14:02;;;;;;;4.25;1.92;;;27.70;78.60;;;;;;5047814;28;20396;-74
2022/07/31 11:16:28;;;;;;;5.10;2.13;;;27.80;79.60;;;;;;4370838;28;10001115;-73
2022/07/31 11:19:05;;;;;;;6.32;2.13;;;27.90;78.50;;;;;;5071952;28;20421;-74
2022/07/31 11:21:40;;;;;;;3.38;1.92;;;27.90;77.30;;;;;;5073469;28;20127;-74
2022/07/31 11:24:22;;;;;;;2.88;1.58;;;28.00;79.30;;;;;;5081433;28;20045;-74
2022/07/31 11:26:52;;;;;;;3.80;1.75;;;28.10;73.60;;;;;;5075912;28;20206;-73
2022/07/31 11:29:33;;;;;;;7.15;1.90;;;28.00;72.20;;;;;;5079363;28;20138;-73
2022/07/31 11:32:16;;;;;;;4.10;1.92;;;27.90;73.40;;;;;;5059835;28;20048;-74
2022/07/31 11:34:48;;;;;;;4.32;1.80;;;27.90;73.30;;;;;;5072446;28;20028;-74
2022/07/31 11:37:19;;;;;;;3.42;1.90;;;27.90;74.50;;;;;;5077530;28;20047;-74
2022/07/31 11:39:46;;;;;;;2.38;1.65;;;27.90;73.90;;;;;;5063045;28;20051;-74
2022/07/31 11:42:12;;;;;;;4.28;1.80;;;27.90;73.20;;;;;;5080700;28;20476;-73
2022/07/31 11:44:38;;;;;;;5.00;1.92;;;27.90;73.20;;;;;;5073835;28;20025;-74
2022/07/31 11:47:03;;;;;;;5.00;1.90;;;27.80;73.00;;;;;;5059343;28;20295;-75
2022/07/31 11:49:34;;;;;;;6.13;1.88;;;27.80;75.80;;;;;;5044747;28;20695;-74
2022/07/31 11:52:00;;;;;;;4.40;1.75;;;27.80;73.90;;;;;;5055605;28;20071;-76
2022/07/31 11:54:26;;;;;;;4.18;1.50;;;27.70;75.70;;;;;;5070935;28;20050;-75
2022/07/31 11:56:55;;;;;;;4.70;1.60;;;27.80;77.20;;;;;;5065982;28;20029;-75
2022/07/31 11:59:32;;;;;;;5.45;1.70;;;27.80;73.20;;;;;;5061922;28;20040;-75
2022/07/31 12:02:02;;;;;;;3.90;1.63;;;27.70;73.80;;;;;;5058503;28;20077;-76
2022/07/31 12:04:28;;;;;;;2.15;1.50;;;27.70;75.00;;;;;;5048718;28;20036;-75
2022/07/31 12:06:56;;;;;;;2.10;1.80;;;27.70;73.20;;;;;;5057335;28;20446;-74
2022/07/31 12:09:22;;;;;;;2.33;1.52;;;27.80;73.50;;;;;;5043570;28;20400;-74
2022/07/31 12:11:47;;;;;;;4.40;1.90;;;27.80;73.80;;;;;;5050137;28;20032;-73
2022/07/31 12:14:13;;;;;;;4.63;2.17;;;28.00;74.00;;;;;;5052932;28;20550;-75
2022/07/31 12:16:40;;;;;;;2.45;1.48;;;28.00;73.10;;;;;;5059893;28;20127;-75
2022/07/31 12:19:06;;;;;;;3.50;1.55;;;28.00;72.10;;;;;;5060221;28;20056;-75
2022/07/31 12:21:34;;;;;;;6.53;1.92;;;28.20;71.60;;;;;;5058972;28;20549;-75
2022/07/31 12:24:00;;;;;;;3.50;1.60;;;28.40;72.20;;;;;;5051836;28;20274;-75
2022/07/31 12:26:31;;;;;;;4.93;1.90;;;28.60;69.30;;;;;;5056567;28;20032;-75
2022/07/31 12:29:02;;;;;;;5.53;1.67;;;28.70;71.00;;;;;;5053704;28;20086;-75
2022/07/31 12:31:31;;;;;;;3.72;1.80;;;28.70;69.80;;;;;;5057111;28;20503;-75
2022/07/31 12:33:57;;;;;;;4.60;1.77;;;28.70;69.30;;;;;;5057724;28;20029;-75
2022/07/31 12:36:22;;;;;;;3.53;1.50;;;29.00;69.30;;;;;;5051706;28;20512;-76
2022/07/31 12:39:02;;;;;;;2.10;1.60;;;29.30;69.90;;;;;;5048959;28;20064;-75
2022/07/31 12:41:28;;;;;;;5.10;1.70;;;29.30;66.60;;;;;;5065281;28;20059;-74
2022/07/31 12:43:54;;;;;;;3.58;1.60;;;29.00;67.20;;;;;;5051925;28;20090;-75
2022/07/31 12:46:21;;;;;;;2.85;1.70;;;28.80;67.90;;;;;;5062360;28;20035;-74
2022/07/31 12:48:47;;;;;;;8.90;1.52;;;28.60;68.00;;;;;;5054398;28;20571;-75